Wednesday, January 17, 2018, 6:24 AM EST
Back to Local

KAFN, Jaffrey Muni-silver Ranch

Location: Jaffrey, NH, United States Lat: 42.8
Local Time: 6:24 AM EST (11:24 GMT) Lon: -72
Time Zone: US/Eastern Elev: 1040 ft

Show me the last for .
Show Decoded

2018-01-17 05:52 METAR KAFN 171052Z AUTO 00000KT 3SM -SN BR OVC011 M02/M03 A3027 RMK AO2 SLP270
                 P0001 T10221028 =
2018-01-17 05:48 METAR KAFN 171048Z AUTO 00000KT 2 1/2SM -SN BR OVC011 M02/M03 A3027 RMK AO2
                 P0001 =
2018-01-17 05:41 METAR KAFN 171041Z AUTO 03003KT 1 3/4SM -SN BR OVC011 M02/M03 A3025 RMK AO2
                 P0001 T10221028 =
2018-01-17 05:34 METAR KAFN 171034Z AUTO 03003KT 1 1/4SM -SN BR BKN011 OVC017 M02/M03 A3027 RMK
                 AO2 P0001 T10221028 =
2018-01-17 05:27 METAR KAFN 171027Z AUTO 00000KT 1SM -SN BR BKN011 OVC019 M02/M03 A3027 RMK AO2
                 P0001 T10221028 =
2018-01-17 05:24 METAR KAFN 171024Z AUTO VRB03KT 1 1/4SM -SN BR SCT011 OVC019 M02/M03 A3027 RMK
                 AO2 P0001 T10221028 =
2018-01-17 05:07 METAR KAFN 171007Z AUTO 00000KT 1 1/2SM -SN BR BKN018 OVC024 M02/M03 A3028 RMK
                 AO2 P0000 T10221028 =
2018-01-17 05:02 METAR KAFN 171002Z AUTO 00000KT 1SM -SN BR VV018 M02/M03 A3028 RMK AO2 P0000
                 T10221028 =
2018-01-17 04:52 METAR KAFN 170952Z AUTO 00000KT 1SM -SN BR VV014 M02/M03 A3027 RMK AO2 SLP270
                 P0003 T10221028 =
2018-01-17 04:43 METAR KAFN 170943Z AUTO 00000KT 1 1/4SM -SN BR FEW009 OVC015 M02/M03 A3028 RMK
                 AO2 P0002 T10221028 =
2018-01-17 04:31 METAR KAFN 170931Z AUTO 00000KT 1 1/4SM -SN BR SCT009 OVC013 M02/M03 A3028 RMK
                 AO2 P0002 T10221028 =
2018-01-17 04:25 METAR KAFN 170925Z AUTO 00000KT 1SM -SN BR BKN010 OVC013 M02/M03 A3028 RMK AO2
                 P0002 T10221028 =
2018-01-17 03:52 METAR KAFN 170852Z AUTO 02003KT 1SM -SN BR OVC009 M02/M03 A3029 RMK AO2 CIG
                 007V014 SLP277 P0002 60006 T10221028 56008 =
2018-01-17 03:09 METAR KAFN 170809Z AUTO 02003KT 1 1/4SM -SN BR BKN008 OVC014 M02/M03 A3030 RMK
                 AO2 P0001 T10221028 =
2018-01-17 02:52 METAR KAFN 170752Z AUTO 00000KT 1 1/4SM -SN BR SCT008 OVC016 M02/M03 A3030 RMK
                 AO2 SLP279 P0002 T10171028 =
2018-01-17 02:27 METAR KAFN 170727Z AUTO 00000KT 1 1/4SM -SN BR FEW006 FEW013 OVC017 M02/M03
                 A3031 RMK AO2 P0001 T10171028 =
2018-01-17 02:06 METAR KAFN 170706Z AUTO 00000KT 1 1/2SM -SN BR FEW006 FEW013 OVC019 M02/M03
                 A3031 RMK AO2 P0001 T10171028 =
2018-01-17 01:52 METAR KAFN 170652Z AUTO 00000KT 1 1/2SM -SN BR OVC018 M02/M03 A3031 RMK AO2
                 SLP281 P0002 T10171028 =
2018-01-17 01:29 METAR KAFN 170629Z AUTO 00000KT 1 1/2SM -SN BR OVC016 M02/M03 A3031 RMK AO2
                 P0002 T10171028 =
2018-01-17 01:00 METAR KAFN 170600Z AUTO 00000KT 1 1/4SM -SN BR OVC018 M02/M03 A3031 RMK AO2
                 P0001 T10171028 =
2018-01-17 00:52 METAR KAFN 170552Z AUTO 00000KT 1 1/2SM -SN BR OVC020 M02/M03 A3032 RMK AO2
                 SLP285 P0001 60006 T10171028 11017 21022 58015 =
2018-01-16 23:52 METAR KAFN 170452Z AUTO 00000KT 1 3/4SM -SN BR SCT012 OVC021 M02/M02 A3033 RMK
                 AO2 SLP290 P0002 T10171022 410111083 =
2018-01-16 23:34 METAR KAFN 170434Z AUTO 00000KT 1 1/2SM -SN BR OVC012 M02/M02 A3034 RMK AO2
                 P0002 T10171022 =
2018-01-16 23:18 METAR KAFN 170418Z AUTO 00000KT 1 1/4SM -SN BR OVC014 M02/M02 A3034 RMK AO2
                 P0001 T10171022 =
2018-01-16 23:13 METAR KAFN 170413Z AUTO 00000KT 1 1/2SM -SN BR SCT012 OVC018 M02/M02 A3034 RMK
                 AO2 P0001 T10171022 =
2018-01-16 23:04 METAR KAFN 170404Z AUTO 00000KT 1 1/4SM -SN BR SCT011 OVC018 M02/M02 A3034 RMK
                 AO2 P0001 T10171022 =
2018-01-16 22:52 METAR KAFN 170352Z AUTO 00000KT 1 1/4SM -SN BR OVC013 M02/M02 A3035 RMK AO2
                 SLP297 P0001 T10171022 =
2018-01-16 22:38 METAR KAFN 170338Z AUTO 00000KT 1 3/4SM -SN BR OVC010 M02/M02 A3035 RMK AO2
                 P0001 T10171022 =
2018-01-16 22:27 METAR KAFN 170327Z AUTO 00000KT 2SM -SN BR OVC010 M02/M03 A3036 RMK AO2 P0001
                 T10171028 =
2018-01-16 22:10 METAR KAFN 170310Z AUTO 00000KT 3SM -SN BR OVC011 M02/M03 A3036 RMK AO2 P0001
                 T10171028 =
2018-01-16 21:52 METAR KAFN 170252Z AUTO 00000KT 2 1/2SM -SN BR OVC011 M02/M03 A3036 RMK AO2
                 SLP302 P0000 60002 T10171028 58006 =
2018-01-16 21:30 METAR KAFN 170230Z AUTO 00000KT 2 1/2SM -SN BR BKN012 OVC029 M02/M02 A3036 RMK
                 AO2 P0000 T10171022 =
2018-01-16 21:10 METAR KAFN 170210Z AUTO 00000KT 2SM -SN BR OVC027 M02/M03 A3036 RMK AO2 P0000
                 T10171033 =
2018-01-16 20:52 METAR KAFN 170152Z AUTO 00000KT 1 1/2SM -SN BR FEW010 OVC021 M02/M02 A3037 RMK
                 AO2 SLP305 P0001 T10171022 =
2018-01-16 20:05 METAR KAFN 170105Z AUTO 00000KT 1 1/2SM -SN BR FEW008 SCT012 OVC022 M02/M03
                 A3037 RMK AO2 P0000 T10221028 =
2018-01-16 19:52 METAR KAFN 170052Z AUTO 19003KT 1 1/2SM -SN BR SCT014 OVC022 M02/M03 A3037 RMK
                 AO2 SLP308 P0001 T10221028 =
2018-01-16 19:16 METAR KAFN 170016Z AUTO 19003KT 1 1/2SM -SN BR OVC026 M02/M03 A3038 RMK AO2
                 P0000 T10221033 =
2018-01-16 19:05 METAR KAFN 170005Z AUTO 19003KT 1 3/4SM -SN BR OVC032 M02/M03 A3038 RMK AO2
                 P0000 T10221028 =
2018-01-16 18:52 METAR KAFN 162352Z AUTO 00000KT 4SM -SN BR OVC042 M02/M03 A3038 RMK AO2 SLP309
                 P0000 60000 T10221033 11011 21022 53001 =
2018-01-16 17:52 METAR KAFN 162252Z AUTO 19003KT 4SM -SN BR OVC050 M02/M03 A3037 RMK AO2 SLP308
                 P0000 T10171033 =
2018-01-16 16:52 METAR KAFN 162152Z AUTO 00000KT 5SM -SN BR FEW013 BKN055 OVC070 M02/M04 A3038
                 RMK AO2 SNB2056 SLP309 P0000 T10171039 =
2018-01-16 16:05 METAR KAFN 162105Z AUTO 19006KT 5SM -SN SCT020 BKN041 OVC055 M02/M05 A3038 RMK
                 AO2 SNB2056 P0000 T10171050 =
2018-01-16 15:52 METAR KAFN 162052Z AUTO 20004KT 10SM BKN020 BKN040 OVC050 M01/M05 A3038 RMK AO2
                 SLP308 T10111050 50001 =
2018-01-16 15:45 METAR KAFN 162045Z AUTO 21003KT 10SM SCT021 BKN040 OVC070 M01/M05 A3037 RMK AO2
                 T10111050 =
2018-01-16 14:52 METAR KAFN 161952Z AUTO 20006KT 10SM BKN022 OVC039 M02/M06 A3038 RMK AO2 SLP309
                 T10171056 =
2018-01-16 13:52 METAR KAFN 161852Z AUTO 20006KT 10SM OVC021 M02/M06 A3038 RMK AO2 SLP308
                 T10171056 =
2018-01-16 13:22 METAR KAFN 161822Z AUTO 19006KT 10SM BKN020 BKN036 M02/M06 A3037 RMK AO2
                 T10171061 =
2018-01-16 12:52 METAR KAFN 161752Z AUTO 20007G14KT 10SM SCT018 M02/M06 A3037 RMK AO2 SLP308
                 60000 T10171061 11017 21083 58025 =
2018-01-16 11:52 METAR KAFN 161652Z AUTO VRB04KT 10SM BKN017 OVC040 M02/M07 A3040 RMK AO2 SLP316
                 T10221067 =
2018-01-16 11:27 METAR KAFN 161627Z AUTO 18007KT 10SM SCT016 OVC044 M03/M07 A3041 RMK AO2
                 T10331072 =
2018-01-16 10:52 METAR KAFN 161552Z AUTO 20003KT 10SM OVC015 M04/M08 A3043 RMK AO2 SLP328
                 T10441078 =
2018-01-16 09:52 METAR KAFN 161452Z AUTO 23004KT 10SM OVC018 M06/M09 A3045 RMK AO2 SLP336 60000
                 T10611089 53009 =
2018-01-16 08:52 METAR KAFN 161352Z AUTO 00000KT 10SM OVC019 M07/M10 A3044 RMK AO2 SLP333
                 T10721100 =
2018-01-16 08:07 METAR KAFN 161307Z AUTO 00000KT 8SM BKN021 OVC034 M08/M11 A3043 RMK AO2
                 T10831106 =
2018-01-16 07:52 METAR KAFN 161252Z AUTO 00000KT 9SM OVC032 M08/M11 A3043 RMK AO2 SNE46 SLP329
                 P0000 T10831111 =
2018-01-16 07:33 METAR KAFN 161233Z AUTO 00000KT 4SM -SN SCT022 OVC030 M08/M12 A3042 RMK AO2
                 P0000 T10831117 =
2018-01-16 06:52 METAR KAFN 161152Z AUTO 00000KT 7SM -SN BKN023 BKN038 OVC045 M08/M12 A3042 RMK
                 AO2 SNB16 SLP327 P0000 60000 T10831122 11078 21083 50001 =

Support USWX by starting your Amazon purchase here.